To NAV CANADA Home Page Login to a new session Search on AWWS site Feedback and Comments Disclaimer Vers la page française équivalente Tips FAQ What's new on the site To the Forecasts and Observations / NOTAM section To "File a Flight Plan" website Publications and other links Update of the User's profile FIC Telephone Numbers My Weather Data Folder Route Weather Data Regional Weather Data Local Weather Data To the Forecasts and Observations / NOTAM section
Request Generated 07/06/2015 at 05:07:18 UTC . Weather information available at that time is displayed.

METAR/TAF

BRANDON/BRANDON MUNICIPALITY/MB    

METAR CYBR 060500Z 02005KT 4SM FU SKC 12/10 A3001 RMK FU6 SLP170=
METAR CYBR 060400Z 01005KT 4SM FU SCT250 12/11 A2999 RMK CI4 SLP163=
METAR CYBR 060300Z 02007KT 5SM FU BKN250 15/12 A2997 RMK CI6 SLP155
DENSITY ALT 1500FT=

TAF CYBR 052338Z 0600/0612 33012G22KT 6SM FU SCT250 TEMPO 0600/0605
2SM FU
FM060500 36008KT P6SM BKN030 TEMPO 0605/0612 3SM FU OVC020
BECMG 0607/0609 05010KT
RMK NXT FCST BY 060600Z=
Your time UTC time
Weather data provided by Environment Canada and NAV CANADA